LSZH/ZRH METAR and TAF weather

Enter ICAO airport designator
Station Type Date Time Source
LSZH METAR 2018/12/11 22:50 UTC NOAA

LSZH 112250Z VRB01KT 9999 FEW055 M03/M04 Q1023 NOSIG


Station Type Date Time Source
LSZH Decoded METAR 2018/12/11 22:50 UTC NOAA

Zurich-Kloten, Switzerland (LSZH) 47-29N 008-32E 432M
Dec 11, 2018 - 05:50 PM EST / 2018.12.11 2250 UTC
Wind: Variable at 1 MPH (1 KT):0
Visibility: greater than 7 mile(s):0
Sky conditions: mostly clear
Temperature: 26 F (-3 C)
Dew Point: 24 F (-4 C)
Relative Humidity: 92%
Pressure (altimeter): 30.21 in. Hg (1023 hPa)
ob: LSZH 112250Z VRB01KT 9999 FEW055 M03/M04 Q1023 NOSIG
cycle: 23

Station Type Date Time Source
LSZH TAF 2018/12/11 21:37 UTC NOAA

TAF LSZH 112025Z 1121/1303 VRB03KT 9999 SCT060 TX01/1214Z TNM05/1206Z
BECMG 1211/1214 05008KT PROB40 1214/1221 05012KT BKN012
BECMG 1220/1224 BKN008


Example: see airport list